createdAt,value
2022-09-26T02:08:06.930Z,990.98
2022-09-26T02:09:05.256Z,990.96
2022-09-26T02:10:05.182Z,990.90
2022-09-26T02:11:05.206Z,990.85
2022-09-26T02:12:05.170Z,990.85
2022-09-26T02:13:05.160Z,990.85
2022-09-26T02:14:05.142Z,990.83
2022-09-26T02:15:05.129Z,990.83
2022-09-26T02:16:05.235Z,990.80
2022-09-26T02:17:05.119Z,990.74
2022-09-26T02:18:05.094Z,990.74
2022-09-26T02:19:05.088Z,990.74
2022-09-26T02:20:05.071Z,990.72
2022-09-26T02:21:05.095Z,990.76
2022-09-26T02:22:05.082Z,990.73
2022-09-26T02:23:05.037Z,990.71
2022-09-26T02:24:05.048Z,990.78
2022-09-26T02:25:05.019Z,990.76
2022-09-26T02:26:05.442Z,990.73
2022-09-26T02:27:05.034Z,990.72
2022-09-26T02:28:05.015Z,990.67
2022-09-26T02:29:05.008Z,990.65
2022-09-26T02:30:04.986Z,990.70
2022-09-26T02:31:05.031Z,990.69
2022-09-26T02:32:05.015Z,990.63
2022-09-26T02:33:04.948Z,990.62
2022-09-26T02:34:04.934Z,990.58
2022-09-26T02:35:04.914Z,990.55
2022-09-26T02:36:04.984Z,990.60
2022-09-26T02:37:04.883Z,990.57
2022-09-26T02:38:04.876Z,990.56
2022-09-26T02:39:04.870Z,990.51
2022-09-26T02:40:04.873Z,990.51
2022-09-26T02:41:04.875Z,990.50
2022-09-26T02:42:04.824Z,990.37
2022-09-26T02:43:04.892Z,990.36
2022-09-26T02:44:04.820Z,990.35
2022-09-26T02:45:04.811Z,990.29
2022-09-26T02:46:04.851Z,990.28
2022-09-26T02:47:04.775Z,990.21
2022-09-26T02:48:04.777Z,990.26
2022-09-26T02:49:04.787Z,990.26
2022-09-26T02:50:04.742Z,990.26
2022-09-26T02:51:04.846Z,990.28
2022-09-26T02:52:04.718Z,990.19
2022-09-26T02:53:04.708Z,990.20
2022-09-26T02:54:04.710Z,990.19
2022-09-26T02:55:05.413Z,990.20
2022-09-26T02:56:04.739Z,990.18
2022-09-26T02:57:04.677Z,990.15
2022-09-26T02:58:04.648Z,990.13
2022-09-26T02:59:04.634Z,990.12
2022-09-26T03:00:04.656Z,990.12
2022-09-26T03:01:05.006Z,990.09
2022-09-26T03:02:04.600Z,990.09
2022-09-26T03:03:04.597Z,990.11
2022-09-26T03:04:04.626Z,990.06
2022-09-26T03:05:04.631Z,990.07
2022-09-26T03:06:04.640Z,990.03
2022-09-26T03:07:04.549Z,990.04
2022-09-26T03:08:04.529Z,990.00
2022-09-26T03:09:04.532Z,989.99
2022-09-26T03:10:04.514Z,989.95
2022-09-26T03:11:04.511Z,989.94
2022-09-26T03:12:04.530Z,989.90
2022-09-26T03:13:04.477Z,989.90
2022-09-26T03:14:04.471Z,989.84
2022-09-26T03:15:04.450Z,989.77
2022-09-26T03:16:04.481Z,989.72
2022-09-26T03:17:04.489Z,989.76
2022-09-26T03:18:04.416Z,989.73
2022-09-26T03:19:04.404Z,989.78
2022-09-26T03:20:04.391Z,989.75
2022-09-26T03:21:04.381Z,989.67
2022-09-26T03:22:04.404Z,989.69
2022-09-26T03:23:04.367Z,989.66
2022-09-26T03:24:04.348Z,989.71
2022-09-26T03:25:04.336Z,989.66
2022-09-26T03:26:04.333Z,989.67
2022-09-26T03:27:04.341Z,989.64
2022-09-26T03:28:04.329Z,989.66
2022-09-26T03:29:04.294Z,989.56
2022-09-26T03:30:04.285Z,989.61
2022-09-26T03:31:04.272Z,989.66
2022-09-26T03:32:04.371Z,989.58
2022-09-26T03:33:04.249Z,989.55
2022-09-26T03:34:04.242Z,989.50
2022-09-26T03:35:04.225Z,989.50
2022-09-26T03:36:04.211Z,989.52
2022-09-26T03:37:04.226Z,989.48
2022-09-26T03:38:04.191Z,989.50
2022-09-26T03:39:04.180Z,989.53
2022-09-26T03:40:04.183Z,989.48
2022-09-26T03:41:04.236Z,989.48
2022-09-26T03:42:04.177Z,989.45
2022-09-26T03:43:04.135Z,989.42
2022-09-26T03:44:04.140Z,989.39
2022-09-26T03:45:04.109Z,989.41
2022-09-26T03:46:04.297Z,989.39
2022-09-26T03:47:04.122Z,989.36
2022-09-26T03:48:04.081Z,989.34
2022-09-26T03:49:04.069Z,989.31
2022-09-26T03:50:04.058Z,989.27
2022-09-26T03:51:04.045Z,989.29
2022-09-26T03:52:04.058Z,989.25
2022-09-26T03:53:04.028Z,989.28
2022-09-26T03:54:04.008Z,989.22
2022-09-26T03:55:04.000Z,989.24
2022-09-26T03:56:03.990Z,989.24
2022-09-26T03:57:04.007Z,989.20
2022-09-26T03:58:03.970Z,989.19
2022-09-26T03:59:03.954Z,989.16
2022-09-26T04:00:04.001Z,989.20
2022-09-26T04:01:04.009Z,989.18
2022-09-26T04:02:04.047Z,989.13
2022-09-26T04:03:03.918Z,989.11
2022-09-26T04:04:03.894Z,989.14
2022-09-26T04:05:03.893Z,989.14
2022-09-26T04:06:03.879Z,989.14
2022-09-26T04:07:03.898Z,989.10
2022-09-26T04:08:03.849Z,989.13
2022-09-26T04:09:03.843Z,989.09
2022-09-26T04:10:03.837Z,989.08
2022-09-26T04:11:03.821Z,989.08
2022-09-26T04:12:03.836Z,989.09
2022-09-26T04:13:03.796Z,989.10
2022-09-26T04:14:03.788Z,989.00
2022-09-26T04:15:03.784Z,989.02
2022-09-26T04:16:03.884Z,988.99
2022-09-26T04:17:03.775Z,989.02
2022-09-26T04:18:03.769Z,989.00
2022-09-26T04:19:03.730Z,989.04
2022-09-26T04:20:03.716Z,988.92
2022-09-26T04:21:07.910Z,988.92
2022-09-26T04:22:04.761Z,988.89
2022-09-26T04:23:03.680Z,988.87
2022-09-26T04:24:03.675Z,988.89
2022-09-26T04:25:03.671Z,988.83
2022-09-26T04:26:03.646Z,988.79
2022-09-26T04:27:03.667Z,988.75
2022-09-26T04:28:03.629Z,988.76
2022-09-26T04:29:03.621Z,988.80
2022-09-26T04:30:03.600Z,988.79
2022-09-26T04:31:03.593Z,988.78
2022-09-26T04:32:03.769Z,988.80
2022-09-26T04:33:03.568Z,988.68
2022-09-26T04:34:03.558Z,988.64
2022-09-26T04:35:03.547Z,988.68
2022-09-26T04:36:03.535Z,988.64
2022-09-26T04:37:03.552Z,988.64
2022-09-26T04:38:03.512Z,988.63
2022-09-26T04:39:03.542Z,988.55
2022-09-26T04:40:03.491Z,988.53
2022-09-26T04:41:03.519Z,988.56
2022-09-26T04:42:03.493Z,988.54
2022-09-26T04:43:03.455Z,988.51
2022-09-26T04:44:03.441Z,988.50
2022-09-26T04:45:03.450Z,988.42
2022-09-26T04:46:03.488Z,988.48
2022-09-26T04:47:03.439Z,988.45
2022-09-26T04:48:03.427Z,988.36
2022-09-26T04:49:03.385Z,988.45
2022-09-26T04:50:03.378Z,988.34
2022-09-26T04:51:03.366Z,988.35
2022-09-26T04:52:03.388Z,988.37
2022-09-26T04:53:03.340Z,988.31
2022-09-26T04:54:03.329Z,988.33
2022-09-26T04:55:03.317Z,988.30
2022-09-26T04:56:03.304Z,988.31
2022-09-26T04:57:03.320Z,988.28
2022-09-26T04:58:03.292Z,988.34
2022-09-26T04:59:03.272Z,988.31
2022-09-26T05:00:03.269Z,988.35
2022-09-26T05:01:03.301Z,988.30
2022-09-26T05:02:03.305Z,988.24
2022-09-26T05:03:03.229Z,988.20
2022-09-26T05:04:03.238Z,988.27
2022-09-26T05:05:03.205Z,988.30
2022-09-26T05:06:03.194Z,988.29
2022-09-26T05:07:03.216Z,988.24
2022-09-26T05:08:03.172Z,988.20
2022-09-26T05:09:03.174Z,988.16
2022-09-26T05:10:03.155Z,988.17
2022-09-26T05:11:03.138Z,988.14
2022-09-26T05:12:03.151Z,988.07
2022-09-26T05:13:03.112Z,988.08
2022-09-26T05:14:03.100Z,988.04
2022-09-26T05:15:03.088Z,988.11
2022-09-26T05:16:03.179Z,988.07
2022-09-26T05:17:03.092Z,988.05
2022-09-26T05:18:03.057Z,988.08
2022-09-26T05:19:03.041Z,988.07
2022-09-26T05:20:03.060Z,988.04
2022-09-26T05:21:03.022Z,988.04
2022-09-26T05:22:03.065Z,988.02
2022-09-26T05:23:03.004Z,988.04
2022-09-26T05:24:02.986Z,988.04
2022-09-26T05:25:02.978Z,988.04
2022-09-26T05:26:02.966Z,988.00
2022-09-26T05:27:02.959Z,988.02
2022-09-26T05:28:02.971Z,988.04
2022-09-26T05:29:08.062Z,988.00
2022-09-26T05:30:03.930Z,987.99
2022-09-26T05:31:02.908Z,987.94
2022-09-26T05:32:02.974Z,987.96
2022-09-26T05:33:02.915Z,987.96
2022-09-26T05:34:02.878Z,987.96
2022-09-26T05:35:02.882Z,987.94
2022-09-26T05:36:02.881Z,987.96
2022-09-26T05:37:02.843Z,987.95
2022-09-26T05:38:02.866Z,987.94
2022-09-26T05:39:02.826Z,987.91
2022-09-26T05:40:02.816Z,987.88
2022-09-26T05:41:02.844Z,987.90
2022-09-26T05:42:02.791Z,987.91
2022-09-26T05:43:02.805Z,987.88
2022-09-26T05:44:02.773Z,987.89
2022-09-26T05:45:02.751Z,987.88
2022-09-26T05:46:02.752Z,987.88
2022-09-26T05:47:02.800Z,987.89
2022-09-26T05:48:02.772Z,987.84
2022-09-26T05:49:02.703Z,987.86
2022-09-26T05:50:02.701Z,987.85
2022-09-26T05:51:02.700Z,987.87
2022-09-26T05:52:02.695Z,987.86
2022-09-26T05:53:02.691Z,987.87
2022-09-26T05:54:02.693Z,987.86
2022-09-26T05:55:02.648Z,987.82
2022-09-26T05:56:02.629Z,987.86
2022-09-26T05:57:02.617Z,987.88
2022-09-26T05:58:02.640Z,987.83
2022-09-26T05:59:02.611Z,987.83
2022-09-26T06:00:02.582Z,987.79
2022-09-26T06:01:02.651Z,987.82
2022-09-26T06:02:02.592Z,987.82
2022-09-26T06:03:02.599Z,987.73
2022-09-26T06:04:02.547Z,987.76
2022-09-26T06:05:02.525Z,987.77
2022-09-26T06:06:02.527Z,987.78
2022-09-26T06:07:02.506Z,987.74
2022-09-26T06:08:02.545Z,987.78
2022-09-26T06:09:02.480Z,987.70
2022-09-26T06:10:02.470Z,987.77
2022-09-26T06:11:02.458Z,987.64
2022-09-26T06:12:02.475Z,987.68
2022-09-26T06:13:02.466Z,987.65
2022-09-26T06:14:02.429Z,987.67
2022-09-26T06:15:02.415Z,987.63
2022-09-26T06:16:02.506Z,987.59
2022-09-26T06:17:02.394Z,987.63
2022-09-26T06:18:02.406Z,987.54
2022-09-26T06:19:02.380Z,987.62
2022-09-26T06:20:02.376Z,987.55
2022-09-26T06:21:02.348Z,987.58
2022-09-26T06:22:02.339Z,987.59
2022-09-26T06:23:02.352Z,987.54
2022-09-26T06:24:02.433Z,987.55
2022-09-26T06:25:02.325Z,987.58
2022-09-26T06:26:02.291Z,987.49
2022-09-26T06:27:02.283Z,987.52
2022-09-26T06:28:02.299Z,987.45
2022-09-26T06:29:02.260Z,987.43
2022-09-26T06:30:02.247Z,987.35
2022-09-26T06:31:02.251Z,987.42
2022-09-26T06:32:02.292Z,987.40
2022-09-26T06:33:02.225Z,987.36
2022-09-26T06:34:02.230Z,987.38
2022-09-26T06:35:02.194Z,987.35
2022-09-26T06:36:02.194Z,987.38
2022-09-26T06:37:02.186Z,987.35
2022-09-26T06:38:02.177Z,987.31
2022-09-26T06:39:02.195Z,987.35
2022-09-26T06:40:02.158Z,987.33
2022-09-26T06:41:02.237Z,987.32
2022-09-26T06:42:02.130Z,987.31
2022-09-26T06:43:02.102Z,987.32
2022-09-26T06:44:02.130Z,987.28
2022-09-26T06:45:02.085Z,987.28
2022-09-26T06:46:02.082Z,987.35
2022-09-26T06:47:02.165Z,987.27
2022-09-26T06:48:02.049Z,987.22
2022-09-26T06:49:02.069Z,987.25
2022-09-26T06:50:02.050Z,987.29
2022-09-26T06:51:02.013Z,987.28
2022-09-26T06:52:02.051Z,987.19
2022-09-26T06:53:10.049Z,987.14
2022-09-26T06:54:03.019Z,987.21
2022-09-26T06:55:01.968Z,987.19
2022-09-26T06:56:02.085Z,987.19
2022-09-26T06:57:01.956Z,987.17
2022-09-26T06:58:01.944Z,987.10
2022-09-26T06:59:01.969Z,987.17
2022-09-26T07:00:01.917Z,987.10
2022-09-26T07:01:02.124Z,987.04
2022-09-26T07:02:02.006Z,987.05
2022-09-26T07:03:01.890Z,987.04
2022-09-26T07:04:01.910Z,987.06
2022-09-26T07:05:01.898Z,987.02
2022-09-26T07:06:01.855Z,987.03
2022-09-26T07:07:01.838Z,987.01
2022-09-26T07:08:01.832Z,986.95
2022-09-26T07:09:04.081Z,987.05
2022-09-26T07:10:01.884Z,986.96
2022-09-26T07:11:27.635Z,986.98
2022-09-26T07:12:14.639Z,986.96
2022-09-26T07:13:02.782Z,986.95
2022-09-26T07:14:01.791Z,986.95
2022-09-26T07:15:01.771Z,986.96
2022-09-26T07:16:01.821Z,986.95
2022-09-26T07:17:01.725Z,986.90
2022-09-26T07:18:01.723Z,986.91
2022-09-26T07:19:01.726Z,986.94
2022-09-26T07:20:02.493Z,986.90
2022-09-26T07:21:01.691Z,986.83
2022-09-26T07:22:01.679Z,986.89
2022-09-26T07:23:01.661Z,986.80
2022-09-26T07:24:01.674Z,986.81
2022-09-26T07:25:01.647Z,986.82
2022-09-26T07:26:01.631Z,986.78
2022-09-26T07:27:01.624Z,986.86
2022-09-26T07:28:01.645Z,986.82
2022-09-26T07:29:01.634Z,986.88
2022-09-26T07:30:01.621Z,986.88
2022-09-26T07:31:01.773Z,986.79
2022-09-26T07:32:01.728Z,986.77
2022-09-26T07:33:01.550Z,986.77
2022-09-26T07:34:01.584Z,986.75
2022-09-26T07:35:01.529Z,986.70
2022-09-26T07:36:05.202Z,986.73
2022-09-26T07:37:01.504Z,986.67
2022-09-26T07:38:01.492Z,986.67
2022-09-26T07:39:01.513Z,986.60
2022-09-26T07:40:02.186Z,986.63
2022-09-26T07:41:01.550Z,986.61
2022-09-26T07:42:01.449Z,986.56
2022-09-26T07:43:19.214Z,986.60
2022-09-26T07:45:22.276Z,986.56
2022-09-26T07:46:02.406Z,986.51
2022-09-26T07:47:01.464Z,986.45
2022-09-26T07:48:01.396Z,986.49
2022-09-26T07:49:01.371Z,986.54
2022-09-26T07:50:01.389Z,986.62
2022-09-26T07:51:05.675Z,986.60
2022-09-26T07:52:02.345Z,986.61
2022-09-26T07:53:01.325Z,986.54
2022-09-26T07:54:01.329Z,986.51
2022-09-26T07:55:01.334Z,986.46
2022-09-26T07:56:01.315Z,986.48
2022-09-26T07:57:01.285Z,986.45
2022-09-26T07:58:01.271Z,986.46
2022-09-26T07:59:01.259Z,986.28
2022-09-26T08:00:01.404Z,986.44
2022-09-26T08:01:01.248Z,986.51
2022-09-26T08:02:01.326Z,986.45
2022-09-26T08:03:01.417Z,986.46
2022-09-26T08:04:01.213Z,986.44
2022-09-26T08:05:01.452Z,986.51
2022-09-26T08:06:01.196Z,986.41
2022-09-26T08:07:01.174Z,986.43
2022-09-26T08:08:01.161Z,986.46
2022-09-26T08:09:01.150Z,986.44
2022-09-26T09:52:59.210Z,985.85
2022-09-26T09:53:56.986Z,985.89
2022-09-26T09:54:56.977Z,985.83
2022-09-26T09:55:57.042Z,985.90
2022-09-26T09:56:56.976Z,985.83
2022-09-26T09:57:56.975Z,985.80
2022-09-26T09:58:56.972Z,985.71
2022-09-26T09:59:56.921Z,985.73
2022-09-26T10:00:56.934Z,985.75
2022-09-26T10:01:56.917Z,985.77
2022-09-26T10:02:56.920Z,985.66
2022-09-26T10:03:56.873Z,985.61
2022-09-26T10:04:56.901Z,985.59
2022-09-26T10:05:56.880Z,985.67
2022-09-26T10:06:56.839Z,985.62
2022-09-26T10:07:56.824Z,985.60
2022-09-26T10:08:56.843Z,985.62
2022-09-26T10:09:56.889Z,985.54
2022-09-26T10:10:56.821Z,985.62
2022-09-26T10:11:56.781Z,985.55
2022-09-26T10:12:56.772Z,985.59
2022-09-26T10:13:56.766Z,985.62
2022-09-26T10:14:56.755Z,985.54
2022-09-26T10:15:56.859Z,985.55
2022-09-26T10:16:56.729Z,985.58
2022-09-26T10:18:22.893Z,985.48
2022-09-26T10:19:02.946Z,985.52
2022-09-26T10:19:57.692Z,985.57
2022-09-26T10:20:56.712Z,985.58
2022-09-26T10:21:56.668Z,985.58
2022-09-26T10:22:56.690Z,985.45
2022-09-26T10:23:56.645Z,985.62
2022-09-26T10:24:56.659Z,985.55
2022-09-26T10:25:56.653Z,985.57
2022-09-26T10:26:56.612Z,985.55
2022-09-26T10:27:56.602Z,985.49
2022-09-26T10:28:56.626Z,985.50
2022-09-26T10:29:56.581Z,985.48
2022-09-26T10:30:56.660Z,985.45
2022-09-26T10:31:56.650Z,985.47
2022-09-26T10:32:56.943Z,985.41
2022-09-26T10:33:56.532Z,985.41
2022-09-26T10:34:56.536Z,985.40
2022-09-26T10:35:56.576Z,985.32
2022-09-26T10:36:56.506Z,985.39
2022-09-26T10:37:56.488Z,985.34
2022-09-26T10:38:56.480Z,985.31
2022-09-26T10:39:56.468Z,985.30
2022-09-26T10:40:56.764Z,985.26
2022-09-26T10:41:56.457Z,985.26
2022-09-26T10:42:56.450Z,985.25
2022-09-26T10:43:56.435Z,985.24
2022-09-26T10:44:56.420Z,985.27
2022-09-26T10:45:56.497Z,985.20
2022-09-26T10:46:56.582Z,985.19
2022-09-26T10:47:56.378Z,985.17
2022-09-26T10:48:56.371Z,985.12
2022-09-26T10:49:56.402Z,985.12
2022-09-26T10:50:56.391Z,985.12
2022-09-26T10:51:56.339Z,985.09
2022-09-26T10:52:56.345Z,985.08
2022-09-26T10:53:56.308Z,985.02
2022-09-26T10:54:56.326Z,985.07
2022-09-26T10:55:56.321Z,984.92
2022-09-26T10:56:56.306Z,985.02
2022-09-26T10:57:56.901Z,984.98
2022-09-26T10:58:56.298Z,984.96
2022-09-26T10:59:56.246Z,985.03
2022-09-26T11:00:56.269Z,984.97
2022-09-26T11:01:56.310Z,984.96
2022-09-26T11:02:56.216Z,984.94
2022-09-26T11:03:56.254Z,984.91
2022-09-26T11:04:56.255Z,984.93
2022-09-26T11:05:56.208Z,984.86
2022-09-26T11:06:56.175Z,984.85
2022-09-26T11:07:56.182Z,984.77
2022-09-26T11:08:56.151Z,984.75
2022-09-26T11:09:56.162Z,984.72
2022-09-26T11:10:56.163Z,984.78
2022-09-26T11:11:56.111Z,984.74
2022-09-26T11:12:56.122Z,984.69
2022-09-26T11:13:56.087Z,984.67
2022-09-26T11:14:56.190Z,984.65
2022-09-26T11:15:56.149Z,984.55
2022-09-26T11:16:56.086Z,984.60
2022-09-26T11:17:56.041Z,984.58
2022-09-26T11:18:56.057Z,984.59
2022-09-26T11:19:56.016Z,984.54
2022-09-26T11:20:56.039Z,984.52
2022-09-26T11:21:56.007Z,984.46
2022-09-26T11:22:56.003Z,984.44
2022-09-26T11:23:55.987Z,984.49
2022-09-26T11:24:55.968Z,984.41
2022-09-26T11:25:58.098Z,984.40
2022-09-26T11:26:55.940Z,984.36
2022-09-26T11:27:55.994Z,984.35
2022-09-26T11:28:55.994Z,984.37
2022-09-26T11:29:55.923Z,984.32
2022-09-26T11:30:56.115Z,984.29
2022-09-26T11:31:59.999Z,984.26
2022-09-26T11:32:55.875Z,984.30
2022-09-26T11:33:55.882Z,984.22
2022-09-26T11:34:55.861Z,984.23
2022-09-26T11:35:55.839Z,984.18
2022-09-26T11:36:55.878Z,984.21
2022-09-26T11:37:55.822Z,984.24
2022-09-26T11:38:55.812Z,984.21
2022-09-26T11:39:55.817Z,984.13
2022-09-26T11:40:55.853Z,984.10
2022-09-26T11:41:55.801Z,984.08
2022-09-26T11:42:55.772Z,984.09
2022-09-26T11:43:55.841Z,984.04
2022-09-26T11:44:55.760Z,983.98
2022-09-26T11:45:55.826Z,984.03
2022-09-26T11:46:55.848Z,984.01
2022-09-26T11:47:55.703Z,983.96
2022-09-26T11:48:55.699Z,983.97
2022-09-26T11:49:55.691Z,984.00
2022-09-26T11:50:55.743Z,983.93
2022-09-26T11:51:55.695Z,983.98
2022-09-26T11:52:55.646Z,984.06
2022-09-26T11:53:55.654Z,984.05
2022-09-26T11:54:55.623Z,984.05
2022-09-26T11:55:55.613Z,984.05
2022-09-26T11:56:55.636Z,983.93
2022-09-26T11:57:55.595Z,984.04
2022-09-26T11:58:55.722Z,984.02
2022-09-26T11:59:55.570Z,983.92
2022-09-26T12:00:55.579Z,984.00
2022-09-26T12:01:55.584Z,984.02
2022-09-26T12:02:55.743Z,984.00
2022-09-26T12:03:55.683Z,983.88
2022-09-26T12:04:55.531Z,983.92
2022-09-26T12:05:55.501Z,983.87
2022-09-26T12:06:55.518Z,983.84
2022-09-26T12:07:55.483Z,983.83
2022-09-26T12:08:55.471Z,983.81
2022-09-26T12:09:55.461Z,983.82
2022-09-26T12:10:55.496Z,983.86
2022-09-26T12:11:55.464Z,983.72
2022-09-26T12:12:55.432Z,983.76
2022-09-26T12:13:55.413Z,983.76
2022-09-26T12:14:55.406Z,983.75
2022-09-26T12:15:55.458Z,983.71
2022-09-26T12:16:55.446Z,983.63
2022-09-26T12:17:55.368Z,983.61
2022-09-26T12:18:55.358Z,983.65
2022-09-26T12:19:55.346Z,983.64
2022-09-26T12:20:55.348Z,983.57
2022-09-26T12:21:55.355Z,983.55
2022-09-26T12:22:55.331Z,983.55
2022-09-26T12:23:55.301Z,983.52
2022-09-26T12:24:55.287Z,983.40
2022-09-26T12:25:55.278Z,983.49
2022-09-26T12:26:55.294Z,983.50
2022-09-26T12:27:55.256Z,983.42
2022-09-26T12:28:55.272Z,983.38
2022-09-26T12:29:55.249Z,983.39
2022-09-26T12:30:55.290Z,983.33
2022-09-26T12:31:55.407Z,983.40
2022-09-26T12:32:55.258Z,983.38
2022-09-26T12:33:55.195Z,983.43
2022-09-26T12:34:55.177Z,983.37
2022-09-26T12:35:55.180Z,983.32
2022-09-26T12:36:55.226Z,983.41
2022-09-26T12:37:55.149Z,983.39
2022-09-26T12:38:56.835Z,983.35
2022-09-26T12:39:55.158Z,983.37
2022-09-26T12:40:55.203Z,983.28
2022-09-26T12:41:55.136Z,983.38
2022-09-26T12:42:55.085Z,983.23
2022-09-26T12:43:55.094Z,983.27
2022-09-26T12:44:55.087Z,983.28
2022-09-26T12:45:55.055Z,983.20
2022-09-26T12:46:55.160Z,983.21
2022-09-26T12:47:55.057Z,983.16
2022-09-26T12:48:55.043Z,983.16
2022-09-26T12:49:55.018Z,983.13
2022-09-26T12:50:54.994Z,983.19
2022-09-26T12:51:55.072Z,983.12
2022-09-26T12:52:55.012Z,983.05
2022-09-26T12:53:54.979Z,982.95
2022-09-26T12:54:54.949Z,983.04
2022-09-26T12:55:54.948Z,983.03
2022-09-26T12:56:54.958Z,982.91
2022-09-26T12:57:54.935Z,983.04
2022-09-26T12:58:54.907Z,983.02
2022-09-26T12:59:54.910Z,982.93
2022-09-26T13:00:54.883Z,982.93
2022-09-26T13:01:55.012Z,982.96
2022-09-26T13:02:54.964Z,982.92
2022-09-26T13:03:54.881Z,982.93
2022-09-26T13:04:54.875Z,982.91
2022-09-26T13:05:54.901Z,982.79
2022-09-26T13:07:17.259Z,982.93
2022-09-26T13:07:55.838Z,982.82
2022-09-26T13:08:54.804Z,982.71
2022-09-26T13:09:54.815Z,982.82
2022-09-26T13:10:54.792Z,982.84
2022-09-26T13:11:54.901Z,982.85
2022-09-26T13:12:55.767Z,982.76
2022-09-26T13:13:54.765Z,982.89
2022-09-26T13:14:54.799Z,982.79
2022-09-26T13:15:54.834Z,982.80
2022-09-26T13:16:54.861Z,982.77
2022-09-26T13:17:54.750Z,982.83
2022-09-26T13:18:54.720Z,982.71
2022-09-26T13:19:55.722Z,982.76
2022-09-26T13:20:55.790Z,982.71
2022-09-26T13:21:54.706Z,982.67
2022-09-26T13:22:54.754Z,982.67
2022-09-26T13:23:54.755Z,982.66
2022-09-26T13:24:54.666Z,982.67
2022-09-26T13:25:54.672Z,982.62
2022-09-26T13:26:54.677Z,982.74
2022-09-26T13:27:55.704Z,982.65
2022-09-26T13:29:13.304Z,982.67
2022-09-26T13:29:55.587Z,982.64
2022-09-26T13:30:54.685Z,982.61
2022-09-26T13:31:54.580Z,982.63
2022-09-26T13:32:54.588Z,982.65
2022-09-26T13:33:54.630Z,982.63
2022-09-26T13:34:54.537Z,982.64
2022-09-26T13:35:54.555Z,982.65
2022-09-26T13:36:54.623Z,982.68
2022-09-26T13:37:59.325Z,982.67
2022-09-26T13:38:55.507Z,982.60
2022-09-26T13:39:54.466Z,982.57
2022-09-26T13:40:54.594Z,982.65
2022-09-26T13:41:54.454Z,982.60
2022-09-26T13:42:55.295Z,982.64
2022-09-26T13:43:54.540Z,982.57
2022-09-26T13:44:54.473Z,982.62
2022-09-26T13:45:54.451Z,982.48
2022-09-26T13:46:54.388Z,982.56
2022-09-26T13:47:54.402Z,982.57
2022-09-26T13:48:54.362Z,982.61
2022-09-26T13:49:54.433Z,982.57
2022-09-26T13:50:54.351Z,982.51
2022-09-26T13:51:54.451Z,982.50
2022-09-26T13:52:54.363Z,982.57
2022-09-26T13:53:54.387Z,982.56
2022-09-26T13:54:54.434Z,982.58
2022-09-26T13:55:54.357Z,982.42
2022-09-26T13:56:55.270Z,982.51
2022-09-26T13:57:54.417Z,982.48
2022-09-26T13:58:54.332Z,982.53
2022-09-26T13:59:55.420Z,982.51
2022-09-26T14:00:54.225Z,982.39
2022-09-26T14:01:54.354Z,982.48
2022-09-26T14:02:54.317Z,982.33
2022-09-26T14:03:54.370Z,982.50
2022-09-26T14:04:55.215Z,982.44
2022-09-26T14:05:54.177Z,982.43
2022-09-26T14:06:55.294Z,982.49
2022-09-26T14:07:54.344Z,982.41
2022-09-26T14:08:54.197Z,982.44
